createdAt,value
2018-06-09T00:01:03.311Z,19.91
2018-06-09T00:03:32.079Z,20.00
2018-06-09T00:06:00.739Z,19.97
2018-06-09T00:08:29.387Z,20.09
2018-06-09T00:10:58.015Z,19.92
2018-06-09T00:13:32.635Z,19.94
2018-06-09T00:16:01.395Z,19.73
2018-06-09T00:18:30.038Z,19.58
2018-06-09T00:20:58.744Z,19.55
2018-06-09T00:23:27.368Z,19.71
2018-06-09T00:25:56.061Z,19.82
2018-06-09T00:28:24.711Z,19.85
2018-06-09T00:30:53.386Z,19.97
2018-06-09T00:33:22.106Z,19.96
2018-06-09T00:35:50.847Z,20.06
2018-06-09T00:38:19.473Z,20.09
2018-06-09T00:40:48.203Z,20.19
2018-06-09T00:43:16.845Z,20.02
2018-06-09T00:45:45.598Z,20.20
2018-06-09T00:48:14.184Z,20.25
2018-06-09T00:50:42.854Z,20.17
2018-06-09T00:53:11.568Z,20.20
2018-06-09T00:55:40.271Z,20.24
2018-06-09T00:58:08.942Z,20.20
2018-06-09T01:00:37.588Z,20.05
2018-06-09T01:03:06.223Z,19.95
2018-06-09T01:05:34.916Z,19.97
2018-06-09T01:08:03.560Z,19.91
2018-06-09T01:10:32.198Z,20.11
2018-06-09T01:13:00.840Z,20.17
2018-06-09T01:15:29.500Z,20.06
2018-06-09T01:17:58.181Z,19.98
2018-06-09T01:23:00.917Z,19.82
2018-06-09T01:25:29.570Z,20.27
2018-06-09T01:27:58.227Z,20.06
2018-06-09T01:30:26.917Z,20.13
2018-06-09T01:32:55.610Z,20.06
2018-06-09T01:35:24.264Z,19.95
2018-06-09T01:37:52.910Z,19.80
2018-06-09T01:40:21.691Z,19.55
2018-06-09T01:42:50.354Z,19.74
2018-06-09T01:45:19.002Z,19.76
2018-06-09T01:47:47.893Z,19.70
2018-06-09T01:50:16.549Z,19.48
2018-06-09T01:52:45.323Z,19.69
2018-06-09T01:55:13.957Z,19.58
2018-06-09T01:57:42.620Z,19.60
2018-06-09T02:00:11.250Z,19.31
2018-06-09T02:02:39.938Z,19.44
2018-06-09T02:05:08.657Z,19.42
2018-06-09T02:07:38.134Z,19.40
2018-06-09T02:10:06.838Z,19.54
2018-06-09T02:12:35.443Z,19.39
2018-06-09T02:15:04.163Z,19.30
2018-06-09T02:17:32.889Z,19.46
2018-06-09T02:20:01.692Z,19.43
2018-06-09T02:22:30.399Z,19.31
2018-06-09T02:24:59.582Z,19.28
2018-06-09T02:27:28.578Z,19.27
2018-06-09T02:29:57.211Z,19.16
2018-06-09T02:32:25.886Z,18.98
2018-06-09T02:34:54.590Z,19.08
2018-06-09T02:37:23.271Z,19.22
2018-06-09T02:39:51.870Z,19.17
2018-06-09T02:42:20.572Z,19.04
2018-06-09T02:44:49.223Z,19.09
2018-06-09T02:47:17.957Z,19.25
2018-06-09T02:49:46.627Z,19.25
2018-06-09T02:52:15.327Z,19.09
2018-06-09T02:54:48.244Z,18.84
2018-06-09T02:57:17.117Z,18.91
2018-06-09T02:59:45.804Z,18.87
2018-06-09T03:02:14.438Z,18.91
2018-06-09T03:04:43.157Z,19.03
2018-06-09T03:07:11.857Z,18.81
2018-06-09T03:09:40.499Z,18.89
2018-06-09T03:12:09.145Z,18.88
2018-06-09T03:14:37.795Z,18.85
2018-06-09T03:17:06.447Z,18.82
2018-06-09T03:19:35.109Z,18.76
2018-06-09T03:22:03.760Z,18.85
2018-06-09T03:24:32.456Z,18.87
2018-06-09T03:27:01.066Z,19.01
2018-06-09T03:29:29.728Z,18.78
2018-06-09T03:31:58.378Z,18.78
2018-06-09T03:34:27.054Z,18.85
2018-06-09T03:36:55.725Z,18.87
2018-06-09T03:39:24.415Z,18.71
2018-06-09T03:41:52.986Z,18.84
2018-06-09T03:44:21.614Z,18.64
2018-06-09T03:46:50.279Z,18.71
2018-06-09T03:49:18.943Z,18.68
2018-06-09T03:51:47.651Z,18.79
2018-06-09T03:54:16.321Z,18.87
2018-06-09T03:56:45.099Z,19.08
2018-06-09T03:59:13.752Z,18.89
2018-06-09T04:01:42.473Z,18.91
2018-06-09T04:04:11.110Z,18.99
2018-06-09T04:06:39.786Z,19.01
2018-06-09T04:09:08.716Z,19.02
2018-06-09T04:11:37.415Z,19.27
2018-06-09T04:14:06.083Z,19.26
2018-06-09T04:16:34.719Z,19.29
2018-06-09T04:19:03.417Z,19.13
2018-06-09T04:21:32.063Z,19.32
2018-06-09T04:24:00.760Z,19.37
2018-06-09T04:26:29.467Z,19.42
2018-06-09T04:28:58.127Z,19.66
2018-06-09T04:31:26.778Z,19.60
2018-06-09T04:33:55.483Z,19.58
2018-06-09T04:36:24.163Z,19.67
2018-06-09T04:38:52.838Z,19.81
2018-06-09T04:41:21.530Z,19.80
2018-06-09T04:43:50.191Z,19.84
2018-06-09T04:46:18.879Z,19.83
2018-06-09T04:48:47.550Z,19.89
2018-06-09T04:51:16.289Z,19.83
2018-06-09T04:53:44.942Z,19.82
2018-06-09T04:56:13.680Z,19.85
2018-06-09T04:58:42.480Z,20.13
2018-06-09T05:01:11.162Z,20.07
2018-06-09T05:03:40.686Z,20.12
2018-06-09T05:06:09.388Z,20.29
2018-06-09T05:08:38.598Z,20.30
2018-06-09T05:11:07.358Z,20.48
2018-06-09T05:13:36.155Z,20.36
2018-06-09T05:16:05.114Z,20.42
2018-06-09T05:18:33.790Z,20.59
2018-06-09T05:21:02.376Z,20.53
2018-06-09T05:23:31.055Z,20.54
2018-06-09T05:25:59.715Z,20.78
2018-06-09T05:28:28.432Z,20.70
2018-06-09T05:30:57.076Z,20.90
2018-06-09T05:33:25.853Z,20.85
2018-06-09T05:35:54.526Z,21.07
2018-06-09T05:38:23.211Z,21.16
2018-06-09T05:40:51.939Z,21.27
2018-06-09T05:43:20.554Z,21.24
2018-06-09T05:45:49.195Z,21.28
2018-06-09T05:48:17.923Z,21.42
2018-06-09T05:50:46.565Z,21.18
2018-06-09T05:53:15.203Z,21.21
2018-06-09T05:55:44.375Z,21.30
2018-06-09T05:58:13.032Z,21.31
2018-06-09T06:00:41.661Z,21.35
2018-06-09T06:03:10.344Z,21.48
2018-06-09T06:05:38.998Z,21.61
2018-06-09T06:08:07.671Z,21.72
2018-06-09T06:10:36.348Z,21.81
2018-06-09T06:13:05.182Z,21.92
2018-06-09T06:15:33.842Z,22.02
2018-06-09T06:18:02.616Z,22.05
2018-06-09T06:20:31.337Z,22.04
2018-06-09T06:23:00.095Z,22.24
2018-06-09T06:25:28.743Z,22.44
2018-06-09T06:27:58.103Z,22.25
2018-06-09T06:30:26.844Z,22.34
2018-06-09T06:32:55.478Z,22.43
2018-06-09T06:35:24.583Z,22.41
2018-06-09T06:37:53.248Z,22.53
2018-06-09T06:40:21.871Z,22.70
2018-06-09T06:42:50.556Z,22.73
2018-06-09T06:45:19.214Z,22.84
2018-06-09T06:47:47.910Z,22.92
2018-06-09T06:50:16.607Z,22.96
2018-06-09T06:52:45.247Z,23.02
2018-06-09T06:55:13.892Z,23.13
2018-06-09T06:57:42.516Z,23.31
2018-06-09T07:00:11.333Z,23.36
2018-06-09T07:02:40.016Z,23.59
2018-06-09T07:05:08.655Z,23.77
2018-06-09T07:07:37.286Z,24.00
2018-06-09T07:10:05.954Z,24.29
2018-06-09T07:12:34.647Z,24.83
2018-06-09T07:15:03.275Z,24.86
2018-06-09T07:17:31.935Z,25.15
2018-06-09T07:20:00.629Z,25.44
2018-06-09T07:22:29.312Z,25.82
2018-06-09T07:24:57.925Z,25.91
2018-06-09T07:27:27.166Z,26.37
2018-06-09T07:29:55.802Z,27.06
2018-06-09T07:32:24.431Z,26.90
2018-06-09T07:34:53.427Z,27.09
2018-06-09T07:37:22.106Z,27.49
2018-06-09T07:39:50.758Z,27.63
2018-06-09T07:42:19.419Z,27.65
2018-06-09T07:44:48.190Z,27.31
2018-06-09T07:47:16.812Z,27.39
2018-06-09T07:49:45.623Z,27.81
2018-06-09T07:52:14.592Z,28.00
2018-06-09T07:54:43.303Z,28.06
2018-06-09T07:57:11.972Z,28.21
2018-06-09T07:59:40.715Z,28.19
2018-06-09T08:02:09.415Z,28.40
2018-06-09T08:04:38.142Z,28.73
2018-06-09T08:07:06.784Z,28.62
2018-06-09T08:09:35.967Z,28.45
2018-06-09T08:12:04.696Z,28.58
2018-06-09T08:14:33.384Z,28.27
2018-06-09T08:17:02.067Z,28.72
2018-06-09T08:19:30.887Z,28.99
2018-06-09T08:21:59.550Z,29.46
2018-06-09T08:24:32.549Z,29.02
2018-06-09T08:27:01.195Z,29.30
2018-06-09T08:29:29.958Z,29.48
2018-06-09T08:31:58.667Z,29.31
2018-06-09T08:34:27.280Z,29.38
2018-06-09T08:36:55.918Z,29.52
2018-06-09T08:39:28.233Z,29.29
2018-06-09T08:41:57.116Z,29.24
2018-06-09T08:44:25.754Z,29.32
2018-06-09T08:46:54.406Z,29.47
2018-06-09T08:49:23.085Z,29.62
2018-06-09T08:51:51.687Z,30.17
2018-06-09T08:54:20.324Z,30.64
2018-06-09T08:56:49.020Z,30.51
2018-06-09T08:59:17.624Z,30.22
2018-06-09T09:01:46.287Z,29.97
2018-06-09T09:04:15.068Z,30.55
2018-06-09T09:06:43.856Z,30.63
2018-06-09T09:09:13.151Z,30.36
2018-06-09T09:11:41.916Z,30.41
2018-06-09T09:14:10.541Z,30.83
2018-06-09T09:16:39.195Z,30.26
2018-06-09T09:19:07.894Z,30.61
2018-06-09T09:21:36.525Z,30.61
2018-06-09T09:24:05.174Z,31.36
2018-06-09T09:26:33.866Z,31.13
2018-06-09T09:29:02.560Z,31.22
2018-06-09T09:31:31.226Z,31.56
2018-06-09T09:33:59.883Z,31.66
2018-06-09T09:36:28.514Z,31.86
2018-06-09T09:38:57.272Z,32.10
2018-06-09T09:41:26.013Z,32.18
2018-06-09T09:43:54.667Z,32.12
2018-06-09T09:46:23.360Z,32.70
2018-06-09T09:48:52.074Z,32.11
2018-06-09T09:51:20.998Z,31.86
2018-06-09T09:53:49.701Z,31.27
2018-06-09T09:56:18.336Z,31.44
2018-06-09T09:58:47.015Z,31.82
2018-06-09T10:01:15.677Z,31.50
2018-06-09T10:03:44.366Z,31.39
2018-06-09T10:06:13.059Z,31.29
2018-06-09T10:08:41.736Z,31.02
2018-06-09T10:11:10.368Z,30.56
2018-06-09T10:13:39.083Z,30.36
2018-06-09T10:16:07.720Z,30.35
2018-06-09T10:18:36.487Z,30.42
2018-06-09T10:21:05.199Z,30.10
2018-06-09T10:23:33.846Z,30.64
2018-06-09T10:26:02.602Z,30.99
2018-06-09T10:28:31.867Z,30.75
2018-06-09T10:31:00.507Z,31.30
2018-06-09T10:33:30.467Z,31.50
2018-06-09T10:35:59.917Z,31.26
2018-06-09T10:38:28.643Z,31.48
2018-06-09T10:40:57.314Z,31.42
2018-06-09T10:43:26.251Z,31.46
2018-06-09T10:45:54.998Z,31.42
2018-06-09T10:48:23.707Z,31.23
2018-06-09T10:50:52.883Z,31.24
2018-06-09T10:53:21.600Z,30.79
2018-06-09T10:55:50.286Z,30.57
2018-06-09T10:58:18.945Z,30.15
2018-06-09T11:00:47.662Z,30.02
2018-06-09T11:03:16.314Z,29.74
2018-06-09T11:05:44.995Z,30.32
2018-06-09T11:08:13.669Z,30.16
2018-06-09T11:10:42.577Z,30.52
2018-06-09T11:13:11.194Z,30.60
2018-06-09T11:15:39.854Z,30.95
2018-06-09T11:18:08.525Z,30.59
2018-06-09T11:20:37.192Z,30.72
2018-06-09T11:23:05.871Z,30.80
2018-06-09T11:25:34.595Z,30.79
2018-06-09T11:28:03.266Z,30.54
2018-06-09T11:30:31.971Z,30.65
2018-06-09T11:33:00.695Z,30.50
2018-06-09T11:35:29.399Z,30.44
2018-06-09T11:37:58.029Z,30.50
2018-06-09T11:40:26.777Z,31.12
2018-06-09T11:42:55.421Z,31.20
2018-06-09T11:45:24.172Z,31.33
2018-06-09T11:47:52.899Z,31.51
2018-06-09T11:50:21.639Z,31.68
2018-06-09T11:52:50.272Z,31.34
2018-06-09T11:55:18.926Z,30.80
2018-06-09T11:57:48.099Z,30.34
2018-06-09T12:00:16.740Z,30.44
2018-06-09T12:02:45.423Z,30.45
2018-06-09T12:05:14.084Z,30.69
2018-06-09T12:07:42.880Z,30.67
2018-06-09T12:10:11.582Z,30.85
2018-06-09T12:12:40.241Z,30.68
2018-06-09T12:15:08.878Z,30.64
2018-06-09T12:17:37.562Z,30.83
2018-06-09T12:20:06.310Z,30.36
2018-06-09T12:22:35.396Z,30.20
2018-06-09T12:25:04.075Z,30.38
2018-06-09T12:27:32.683Z,30.52
2018-06-09T12:30:01.387Z,30.36
2018-06-09T12:32:30.462Z,30.27
2018-06-09T12:34:59.070Z,29.73
2018-06-09T12:37:27.757Z,29.63
2018-06-09T12:39:56.382Z,29.22
2018-06-09T12:42:25.034Z,29.38
2018-06-09T12:44:53.687Z,29.24
2018-06-09T12:47:22.366Z,29.04
2018-06-09T12:49:51.050Z,28.95
2018-06-09T12:52:19.783Z,29.03
2018-06-09T12:54:48.994Z,28.54
2018-06-09T12:57:18.123Z,28.45
2018-06-09T12:59:47.468Z,28.35
2018-06-09T13:02:16.147Z,28.35
2018-06-09T13:04:44.820Z,28.28
2018-06-09T13:07:13.495Z,28.54
2018-06-09T13:09:42.186Z,28.61
2018-06-09T13:12:10.866Z,28.71
2018-06-09T13:14:39.504Z,28.82
2018-06-09T13:17:08.162Z,28.73
2018-06-09T13:19:36.842Z,28.60
2018-06-09T13:22:05.653Z,28.50
2018-06-09T13:24:34.283Z,28.55
2018-06-09T13:27:02.964Z,28.53
2018-06-09T13:29:31.673Z,28.74
2018-06-09T13:32:00.442Z,28.92
2018-06-09T13:34:29.126Z,28.85
2018-06-09T13:36:57.825Z,29.06
2018-06-09T13:39:26.512Z,28.75
2018-06-09T13:41:55.185Z,28.68
2018-06-09T13:44:23.797Z,28.32
2018-06-09T13:46:52.635Z,28.37
2018-06-09T13:49:21.251Z,28.53
2018-06-09T13:51:49.892Z,28.49
2018-06-09T13:54:18.547Z,28.35
2018-06-09T13:56:47.226Z,28.53
2018-06-09T13:59:15.878Z,28.54
2018-06-09T14:01:45.194Z,28.69
2018-06-09T14:04:14.206Z,28.93
2018-06-09T14:06:44.287Z,28.75
2018-06-09T14:09:12.969Z,28.95
2018-06-09T14:11:41.617Z,29.00
2018-06-09T14:14:10.280Z,28.93
2018-06-09T14:16:38.963Z,28.97
2018-06-09T14:19:07.680Z,28.99
2018-06-09T14:21:36.339Z,28.71
2018-06-09T14:24:05.023Z,29.03
2018-06-09T14:26:38.531Z,28.71
2018-06-09T14:29:07.901Z,28.84
2018-06-09T14:31:36.647Z,28.84
2018-06-09T14:34:05.298Z,28.78
2018-06-09T14:36:33.979Z,28.84
2018-06-09T14:39:02.621Z,28.87
2018-06-09T14:41:31.250Z,28.95
2018-06-09T14:43:59.918Z,28.91
2018-06-09T14:46:28.518Z,28.91
2018-06-09T14:48:57.189Z,28.76
2018-06-09T14:51:25.791Z,28.41
2018-06-09T14:53:54.469Z,28.02
2018-06-09T14:56:23.348Z,27.79
2018-06-09T14:58:54.207Z,27.75
2018-06-09T15:01:23.412Z,27.69
2018-06-09T15:03:52.098Z,27.68
2018-06-09T15:06:20.750Z,27.90
2018-06-09T15:08:49.426Z,28.02
2018-06-09T15:11:18.216Z,27.88
2018-06-09T15:13:46.807Z,27.70
2018-06-09T15:16:15.488Z,27.93
2018-06-09T15:18:44.187Z,27.76
2018-06-09T15:21:12.833Z,27.91
2018-06-09T15:23:41.918Z,27.45
2018-06-09T15:26:10.623Z,27.38
2018-06-09T15:28:39.288Z,27.45
2018-06-09T15:31:07.940Z,27.56
2018-06-09T15:33:36.739Z,27.44
2018-06-09T15:36:05.334Z,27.24
2018-06-09T15:38:34.015Z,26.96
2018-06-09T15:41:02.696Z,26.99
2018-06-09T15:43:31.391Z,27.12
2018-06-09T15:46:00.031Z,27.06
2018-06-09T15:48:28.766Z,27.02
2018-06-09T15:50:57.446Z,27.15
2018-06-09T15:53:26.080Z,26.97
2018-06-09T15:55:54.798Z,26.76
2018-06-09T15:58:23.446Z,26.61
2018-06-09T16:00:52.119Z,26.33
2018-06-09T16:03:20.771Z,26.30
2018-06-09T16:05:49.438Z,26.46
2018-06-09T16:08:18.088Z,26.42
2018-06-09T16:10:46.739Z,26.40
2018-06-09T16:13:15.378Z,26.36
2018-06-09T16:15:44.045Z,26.33
2018-06-09T16:18:12.713Z,26.02
2018-06-09T16:20:41.415Z,26.03
2018-06-09T16:23:10.076Z,26.06
2018-06-09T16:25:38.714Z,26.04
2018-06-09T16:28:07.319Z,25.84
2018-06-09T16:30:35.922Z,25.94
2018-06-09T16:33:04.543Z,25.72
2018-06-09T16:35:33.187Z,25.79
2018-06-09T16:38:01.850Z,25.75
2018-06-09T16:40:30.550Z,25.63
2018-06-09T16:42:59.238Z,25.68
2018-06-09T16:45:27.888Z,25.48
2018-06-09T16:47:56.596Z,25.37
2018-06-09T16:50:25.263Z,25.75
2018-06-09T16:52:53.996Z,25.52
2018-06-09T16:55:22.696Z,25.77
2018-06-09T16:57:51.309Z,25.81
2018-06-09T17:00:21.100Z,25.58
2018-06-09T17:02:49.846Z,25.50
2018-06-09T17:05:18.818Z,25.58
2018-06-09T17:07:47.596Z,25.57
2018-06-09T17:10:16.255Z,25.58
2018-06-09T17:12:45.689Z,25.47
2018-06-09T17:15:14.507Z,25.47
2018-06-09T17:17:43.702Z,25.46
2018-06-09T17:20:12.408Z,25.39
2018-06-09T17:22:42.241Z,25.46
2018-06-09T17:25:11.142Z,25.45
2018-06-09T17:27:39.881Z,25.44
2018-06-09T17:30:16.114Z,25.28
2018-06-09T17:35:45.075Z,25.10
2018-06-09T17:38:13.786Z,25.09
2018-06-09T17:40:42.820Z,25.09
2018-06-09T17:43:11.600Z,25.05
2018-06-09T17:45:40.258Z,25.00
2018-06-09T17:48:08.900Z,24.98
2018-06-09T17:50:37.518Z,24.87
2018-06-09T17:53:06.344Z,24.85
2018-06-09T17:55:36.099Z,24.85
2018-06-09T17:58:04.835Z,24.98
2018-06-09T18:00:33.480Z,24.78
2018-06-09T18:03:08.322Z,24.75
2018-06-09T18:05:36.990Z,24.89
2018-06-09T18:08:06.134Z,24.78
2018-06-09T18:10:34.942Z,24.75
2018-06-09T18:13:04.362Z,24.77
2018-06-09T18:15:33.036Z,24.72
2018-06-09T18:18:01.669Z,24.66
2018-06-09T18:20:30.694Z,24.57
2018-06-09T18:23:00.627Z,24.38
2018-06-09T18:25:29.312Z,24.56
2018-06-09T18:27:57.997Z,24.55
2018-06-09T18:30:26.722Z,24.46
2018-06-09T18:32:55.453Z,24.24
2018-06-09T18:35:24.172Z,24.28
2018-06-09T18:37:52.870Z,24.23
2018-06-09T18:40:21.515Z,24.25
2018-06-09T18:42:50.171Z,24.16
2018-06-09T18:45:18.865Z,24.13
2018-06-09T18:47:48.187Z,24.13
2018-06-09T18:50:16.845Z,24.10
2018-06-09T18:52:45.575Z,24.04
2018-06-09T18:55:14.256Z,23.91
2018-06-09T18:57:42.929Z,24.05
2018-06-09T19:00:11.780Z,24.00
2018-06-09T19:02:40.443Z,24.02
2018-06-09T19:05:09.126Z,24.02
2018-06-09T19:07:37.833Z,24.10
2018-06-09T19:10:06.533Z,23.95
2018-06-09T19:12:35.184Z,23.88
2018-06-09T19:15:03.924Z,23.80
2018-06-09T19:17:32.584Z,23.72
2018-06-09T19:20:01.311Z,23.71
2018-06-09T19:22:29.975Z,23.70
2018-06-09T19:24:58.668Z,23.79
2018-06-09T19:27:27.469Z,23.79
2018-06-09T19:29:56.050Z,23.76
2018-06-09T19:32:24.876Z,23.71
2018-06-09T19:34:53.592Z,23.76
2018-06-09T19:37:22.372Z,23.80
2018-06-09T19:39:51.118Z,23.87
2018-06-09T19:42:20.674Z,23.90
2018-06-09T19:44:49.352Z,23.79
2018-06-09T19:47:18.034Z,23.72
2018-06-09T19:49:46.695Z,23.59
2018-06-09T19:52:15.339Z,23.61
2018-06-09T19:54:44.510Z,23.61
2018-06-09T19:57:13.189Z,23.65
2018-06-09T19:59:42.263Z,23.62
2018-06-09T20:02:11.010Z,23.64
2018-06-09T20:04:39.650Z,23.67
2018-06-09T20:07:08.396Z,23.62
2018-06-09T20:09:37.027Z,23.64
2018-06-09T20:12:05.706Z,23.66
2018-06-09T20:14:34.746Z,23.67
2018-06-09T20:17:04.310Z,23.64
2018-06-09T20:19:33.015Z,23.67
2018-06-09T20:22:01.720Z,23.72
2018-06-09T20:24:30.374Z,23.62
2018-06-09T20:26:58.989Z,23.68
2018-06-09T20:29:27.698Z,23.73
2018-06-09T20:31:56.362Z,23.62
2018-06-09T20:34:25.044Z,23.66
2018-06-09T20:36:54.690Z,23.64
2018-06-09T20:39:23.448Z,23.59
2018-06-09T20:41:53.191Z,23.65
2018-06-09T20:44:22.023Z,23.69
2018-06-09T20:46:50.835Z,23.58
2018-06-09T20:49:19.531Z,23.57
2018-06-09T20:51:48.264Z,23.62
2018-06-09T20:54:16.986Z,23.54
2018-06-09T20:56:45.712Z,23.53
2018-06-09T20:59:14.372Z,23.62
2018-06-09T21:01:43.274Z,23.46
2018-06-09T21:04:12.048Z,23.46
2018-06-09T21:06:40.770Z,23.62
2018-06-09T21:09:09.430Z,23.56
2018-06-09T21:11:38.286Z,23.73
2018-06-09T21:14:07.036Z,23.52
2018-06-09T21:16:35.686Z,23.68
2018-06-09T21:19:04.602Z,23.57
2018-06-09T21:21:33.269Z,23.67
2018-06-09T21:24:03.001Z,23.79
2018-06-09T21:26:37.122Z,23.54
2018-06-09T21:29:11.435Z,23.40
2018-06-09T21:31:44.671Z,23.51
2018-06-09T21:34:30.351Z,23.57
2018-06-09T21:37:15.495Z,23.52
2018-06-09T21:39:49.842Z,23.61
2018-06-09T21:42:24.118Z,23.55
2018-06-09T21:44:58.110Z,23.51
2018-06-09T21:47:27.296Z,23.46
2018-06-09T21:49:56.544Z,23.53
2018-06-09T21:52:26.313Z,23.27
2018-06-09T21:54:55.146Z,23.27
2018-06-09T21:57:23.807Z,23.37
2018-06-09T21:59:52.978Z,23.36
2018-06-09T22:02:21.855Z,23.29
2018-06-09T22:04:50.710Z,23.57
2018-06-09T22:07:19.351Z,23.15
2018-06-09T22:09:48.011Z,23.15
2018-06-09T22:12:17.958Z,23.30
2018-06-09T22:14:46.694Z,23.53
2018-06-09T22:17:15.365Z,23.52
2018-06-09T22:19:44.248Z,23.39
2018-06-09T22:22:13.498Z,23.57
2018-06-09T22:24:42.394Z,23.42
2018-06-09T22:27:11.238Z,23.27
2018-06-09T22:29:40.056Z,23.39
2018-06-09T22:32:08.837Z,23.39
2018-06-09T22:34:37.873Z,23.26
2018-06-09T22:37:06.475Z,23.54
2018-06-09T22:39:35.227Z,23.34
2018-06-09T22:42:04.030Z,23.43
2018-06-09T22:44:32.716Z,23.27
2018-06-09T22:47:01.420Z,23.46
2018-06-09T22:49:30.057Z,23.27
2018-06-09T22:51:58.742Z,23.34
2018-06-09T22:54:28.156Z,23.36
2018-06-09T22:56:56.842Z,23.76
2018-06-09T22:59:25.530Z,23.62
2018-06-09T23:04:29.141Z,23.32
2018-06-09T23:06:57.770Z,23.18
2018-06-09T23:09:26.459Z,23.23
2018-06-09T23:11:55.091Z,23.20
2018-06-09T23:14:23.760Z,22.99
2018-06-09T23:16:52.402Z,22.87
2018-06-09T23:19:21.047Z,22.87
2018-06-09T23:21:49.686Z,22.79
2018-06-09T23:24:18.307Z,22.73
2018-06-09T23:26:47.448Z,22.69
2018-06-09T23:29:16.246Z,23.03
2018-06-09T23:31:45.048Z,23.09
2018-06-09T23:34:13.696Z,23.05
2018-06-09T23:36:42.333Z,22.94
2018-06-09T23:39:10.989Z,23.02
2018-06-09T23:41:39.632Z,22.90
2018-06-09T23:44:09.179Z,22.76
2018-06-09T23:46:37.884Z,22.88
2018-06-09T23:49:06.518Z,23.01
2018-06-09T23:51:35.234Z,23.07
2018-06-09T23:54:04.306Z,22.81
2018-06-09T23:56:33.020Z,22.76
2018-06-09T23:59:01.627Z,22.39
